createdAt,value
2019-03-13T00:01:49.381Z,100383.77
2019-03-13T00:03:55.875Z,100382.06
2019-03-13T00:06:03.304Z,100371.70
2019-03-13T00:08:09.533Z,100373.42
2019-03-13T00:10:16.344Z,100371.27
2019-03-13T00:12:22.858Z,100363.50
2019-03-13T00:14:32.747Z,100356.14
2019-03-13T00:16:41.661Z,100356.59
2019-03-13T00:18:51.623Z,100350.99
2019-03-13T00:20:58.071Z,100347.52
2019-03-13T00:23:04.835Z,100341.03
2019-03-13T00:25:11.273Z,100330.25
2019-03-13T00:27:17.439Z,100328.94
2019-03-13T00:29:23.596Z,100326.78
2019-03-13T00:31:30.602Z,100317.30
2019-03-13T00:33:37.131Z,100312.95
2019-03-13T00:35:43.403Z,100312.53
2019-03-13T00:37:49.653Z,100310.78
2019-03-13T00:39:55.819Z,100311.23
2019-03-13T00:42:01.955Z,100304.76
2019-03-13T00:44:08.135Z,100307.78
2019-03-13T00:46:14.273Z,100296.97
2019-03-13T00:48:20.326Z,100297.84
2019-03-13T00:50:30.339Z,100296.09
2019-03-13T00:52:36.533Z,100287.45
2019-03-13T00:54:42.713Z,100293.06
2019-03-13T00:56:48.962Z,100280.95
2019-03-13T00:58:55.118Z,100275.34
2019-03-13T01:01:15.103Z,100280.94
2019-03-13T01:03:32.933Z,100265.84
2019-03-13T01:05:43.598Z,100256.77
2019-03-13T01:07:49.864Z,100255.88
2019-03-13T01:09:56.113Z,100251.11
2019-03-13T01:12:02.275Z,100248.06
2019-03-13T01:14:08.436Z,100244.64
2019-03-13T01:16:14.576Z,100237.70
2019-03-13T01:18:21.057Z,100233.37
2019-03-13T01:20:27.225Z,100220.42
2019-03-13T01:22:33.481Z,100208.77
2019-03-13T01:24:39.828Z,100206.15
2019-03-13T01:26:48.463Z,100196.25
2019-03-13T01:28:56.404Z,100184.59
2019-03-13T01:31:19.527Z,100180.28
2019-03-13T01:33:25.902Z,100176.83
2019-03-13T01:35:40.054Z,100167.30
2019-03-13T01:37:46.493Z,100177.20
2019-03-13T01:39:53.103Z,100168.13
2019-03-13T01:41:59.321Z,100169.89
2019-03-13T01:44:06.604Z,100165.58
2019-03-13T01:46:12.852Z,100159.96
2019-03-13T01:48:19.112Z,100161.69
2019-03-13T01:50:25.270Z,100153.05
2019-03-13T01:52:32.352Z,100150.92
2019-03-13T01:54:38.715Z,100152.22
2019-03-13T01:56:44.972Z,100145.28
2019-03-13T01:58:51.133Z,100138.81
2019-03-13T02:00:57.296Z,100139.23
2019-03-13T02:03:05.289Z,100131.44
2019-03-13T02:05:11.450Z,100133.16
2019-03-13T02:07:17.805Z,100116.36
2019-03-13T02:09:23.969Z,100116.79
2019-03-13T02:11:30.420Z,100105.59
2019-03-13T02:13:36.591Z,100109.05
2019-03-13T02:15:43.062Z,100098.69
2019-03-13T02:17:49.210Z,100103.47
2019-03-13T02:19:55.558Z,100100.44
2019-03-13T02:22:01.644Z,100103.03
2019-03-13T02:24:08.002Z,100107.38
2019-03-13T02:26:14.145Z,100103.48
2019-03-13T02:28:20.412Z,100101.77
2019-03-13T02:30:28.213Z,100096.16
2019-03-13T02:32:34.361Z,100092.70
2019-03-13T02:34:40.526Z,100087.52
2019-03-13T02:36:47.024Z,100078.43
2019-03-13T02:38:53.540Z,100077.11
2019-03-13T02:40:59.719Z,100067.58
2019-03-13T02:43:06.057Z,100054.63
2019-03-13T02:45:16.527Z,100048.55
2019-03-13T02:47:22.691Z,100039.88
2019-03-13T02:49:28.948Z,100034.70
2019-03-13T02:51:35.161Z,100023.52
2019-03-13T02:53:41.364Z,100025.23
2019-03-13T02:55:47.530Z,100015.31
2019-03-13T02:57:53.803Z,100011.86
2019-03-13T02:59:59.945Z,100010.56
2019-03-13T03:02:07.665Z,100010.13
2019-03-13T03:04:14.788Z,99998.91
2019-03-13T03:06:20.973Z,100001.92
2019-03-13T03:08:27.036Z,99992.86
2019-03-13T03:10:33.178Z,99983.36
2019-03-13T03:12:39.348Z,99978.19
2019-03-13T03:15:04.609Z,99981.59
2019-03-13T03:17:10.815Z,99975.59
2019-03-13T03:19:17.888Z,99969.12
2019-03-13T03:21:25.065Z,99967.36
2019-03-13T03:23:34.384Z,99956.99
2019-03-13T03:25:40.447Z,99959.59
2019-03-13T03:27:46.932Z,99944.94
2019-03-13T03:29:53.073Z,99945.80
2019-03-13T03:31:59.229Z,99938.00
2019-03-13T03:34:06.160Z,99937.13
2019-03-13T03:36:12.386Z,99929.36
2019-03-13T03:38:18.647Z,99937.99
2019-03-13T03:40:25.429Z,99925.48
2019-03-13T03:42:31.991Z,99924.61
2019-03-13T03:44:38.251Z,99929.33
2019-03-13T03:46:48.642Z,99927.59
2019-03-13T03:48:55.583Z,99914.64
2019-03-13T03:51:02.756Z,99913.34
2019-03-13T03:53:13.381Z,99912.45
2019-03-13T03:55:19.468Z,99921.08
2019-03-13T03:57:25.939Z,99912.88
2019-03-13T03:59:32.208Z,99902.48
2019-03-13T04:01:39.687Z,99892.55
2019-03-13T04:03:46.349Z,99905.50
2019-03-13T04:05:52.503Z,99899.02
2019-03-13T04:07:58.538Z,99892.50
2019-03-13T04:10:13.338Z,99891.20
2019-03-13T04:12:21.794Z,99891.64
2019-03-13T04:14:28.614Z,99889.91
2019-03-13T04:16:36.315Z,99885.98
2019-03-13T04:18:42.573Z,99880.84
2019-03-13T04:20:49.079Z,99873.06
2019-03-13T04:22:57.286Z,99867.84
2019-03-13T04:25:21.631Z,99873.50
2019-03-13T04:27:27.879Z,99874.32
2019-03-13T04:29:34.033Z,99869.56
2019-03-13T04:31:40.291Z,99872.55
2019-03-13T04:33:46.455Z,99874.70
2019-03-13T04:35:52.813Z,99878.56
2019-03-13T04:37:58.977Z,99878.56
2019-03-13T04:40:08.274Z,99875.53
2019-03-13T04:42:14.658Z,99876.34
2019-03-13T04:44:24.012Z,99872.02
2019-03-13T04:46:33.580Z,99870.73
2019-03-13T04:48:41.070Z,99875.86
2019-03-13T04:50:52.424Z,99868.05
2019-03-13T04:52:59.420Z,99861.56
2019-03-13T04:55:08.884Z,99864.98
2019-03-13T04:57:15.497Z,99867.56
2019-03-13T04:59:21.743Z,99860.62
2019-03-13T05:01:27.905Z,99864.45
2019-03-13T05:03:33.931Z,99862.25
2019-03-13T05:07:17.151Z,99859.22
2019-03-13T05:08:45.419Z,99852.73
2019-03-13T05:10:51.912Z,99843.19
2019-03-13T05:12:58.146Z,99859.56
2019-03-13T05:15:06.332Z,99845.26
2019-03-13T05:17:13.957Z,99849.13
2019-03-13T05:19:24.757Z,99847.78
2019-03-13T05:21:32.654Z,99847.30
2019-03-13T05:23:39.682Z,99843.37
2019-03-13T05:25:50.310Z,99843.70
2019-03-13T05:27:59.874Z,99842.83
2019-03-13T05:30:09.834Z,99841.86
2019-03-13T05:32:17.722Z,99843.97
2019-03-13T05:34:24.030Z,99847.75
2019-03-13T05:36:30.231Z,99845.92
2019-03-13T05:38:36.441Z,99838.51
2019-03-13T05:40:42.811Z,99844.12
2019-03-13T05:42:48.864Z,99847.05
2019-03-13T05:44:55.022Z,99843.52
2019-03-13T05:47:01.182Z,99845.77
2019-03-13T05:49:07.241Z,99849.61
2019-03-13T05:51:13.388Z,99842.50
2019-03-13T05:53:19.575Z,99840.87
2019-03-13T05:55:26.844Z,99829.58
2019-03-13T05:57:32.995Z,99833.89
2019-03-13T05:59:39.157Z,99833.45
2019-03-13T06:01:45.417Z,99833.34
2019-03-13T06:03:51.578Z,99843.23
2019-03-13T06:05:57.842Z,99830.63
2019-03-13T06:08:03.987Z,99840.81
2019-03-13T06:10:15.512Z,99841.20
2019-03-13T06:12:21.841Z,99836.48
2019-03-13T06:14:29.005Z,99841.63
2019-03-13T06:16:35.176Z,99834.13
2019-03-13T06:18:47.349Z,99841.56
2019-03-13T06:21:21.809Z,99840.98
2019-03-13T06:23:28.132Z,99846.97
2019-03-13T06:25:35.849Z,99838.92
2019-03-13T06:27:42.115Z,99847.59
2019-03-13T06:29:48.268Z,99851.41
2019-03-13T06:31:54.415Z,99847.38
2019-03-13T06:34:00.685Z,99846.38
2019-03-13T06:36:06.867Z,99842.02
2019-03-13T06:38:12.844Z,99850.08
2019-03-13T06:40:21.463Z,99847.97
2019-03-13T06:42:27.557Z,99848.18
2019-03-13T06:44:34.113Z,99854.19
2019-03-13T06:46:40.316Z,99843.77
2019-03-13T06:48:46.458Z,99845.49
2019-03-13T06:50:52.705Z,99843.79
2019-03-13T06:52:58.865Z,99840.75
2019-03-13T06:55:05.846Z,99851.92
2019-03-13T06:57:12.228Z,99847.11
2019-03-13T06:59:20.114Z,99840.94
2019-03-13T07:01:39.903Z,99849.06
2019-03-13T07:03:47.779Z,99859.44
2019-03-13T07:06:08.634Z,99863.84
2019-03-13T07:08:29.390Z,99871.14
2019-03-13T07:10:41.081Z,99870.70
2019-03-13T07:12:48.874Z,99870.77
2019-03-13T07:15:02.296Z,99875.19
2019-03-13T07:17:10.213Z,99875.71
2019-03-13T07:19:21.074Z,99881.53
2019-03-13T07:21:46.890Z,99889.42
2019-03-13T07:23:55.700Z,99887.83
2019-03-13T07:26:09.757Z,99877.89
2019-03-13T07:28:23.799Z,99883.66
2019-03-13T07:30:31.781Z,99891.15
2019-03-13T07:32:43.672Z,99888.69
2019-03-13T07:35:01.422Z,99890.95
2019-03-13T07:37:07.262Z,99893.19
2019-03-13T07:39:16.283Z,99902.66
2019-03-13T07:41:42.419Z,99902.34
2019-03-13T07:44:06.593Z,99901.92
2019-03-13T07:46:30.465Z,99902.71
2019-03-13T07:48:54.542Z,99906.84
2019-03-13T07:51:18.974Z,99900.34
2019-03-13T07:53:41.684Z,99909.81
2019-03-13T07:55:58.047Z,99903.94
2019-03-13T07:58:21.135Z,99922.87
2019-03-13T08:00:32.877Z,99924.16
2019-03-13T08:02:55.667Z,99926.02
2019-03-13T08:05:03.841Z,99927.30
2019-03-13T08:07:12.998Z,99929.78
2019-03-13T08:09:21.820Z,99924.11
2019-03-13T08:11:44.265Z,99935.30
2019-03-13T08:14:08.226Z,99936.28
2019-03-13T08:16:32.016Z,99934.12
2019-03-13T08:18:42.536Z,99944.45
2019-03-13T08:20:54.159Z,99935.29
2019-03-13T08:23:22.940Z,99952.83
2019-03-13T08:25:30.828Z,99949.77
2019-03-13T08:27:44.112Z,99957.16
2019-03-13T08:29:53.513Z,99955.37
2019-03-13T08:32:06.937Z,99950.94
2019-03-13T08:34:27.033Z,99958.13
2019-03-13T08:36:47.021Z,99952.38
2019-03-13T08:39:10.970Z,99954.35
2019-03-13T08:41:18.770Z,99959.17
2019-03-13T08:43:38.335Z,99960.25
2019-03-13T08:45:52.992Z,99963.15
2019-03-13T08:47:58.855Z,99965.69
2019-03-13T08:50:15.858Z,99964.38
2019-03-13T08:52:23.787Z,99959.23
2019-03-13T08:54:42.134Z,99959.25
2019-03-13T08:57:07.614Z,99956.82
2019-03-13T08:59:31.380Z,99953.48
2019-03-13T09:01:39.040Z,99948.28
2019-03-13T09:03:55.731Z,99959.42
2019-03-13T09:06:04.383Z,99960.59
2019-03-13T09:08:14.938Z,99963.52
2019-03-13T09:10:39.013Z,99962.95
2019-03-13T09:12:50.935Z,99973.67
2019-03-13T09:15:02.430Z,99974.09
2019-03-13T09:17:10.877Z,99969.69
2019-03-13T09:19:23.243Z,99968.11
2019-03-13T09:21:47.728Z,99972.42
2019-03-13T09:24:07.543Z,99974.21
2019-03-13T09:26:18.072Z,99991.91
2019-03-13T09:28:28.617Z,99991.47
2019-03-13T09:30:52.689Z,99995.39
2019-03-13T09:33:00.397Z,99994.64
2019-03-13T09:35:28.465Z,100001.39
2019-03-13T09:37:37.492Z,100006.59
2019-03-13T09:39:46.205Z,99999.72
2019-03-13T09:41:54.107Z,100001.44
2019-03-13T09:44:00.263Z,100004.34
2019-03-13T09:46:16.978Z,100003.84
2019-03-13T09:48:24.762Z,100002.92
2019-03-13T09:50:33.479Z,100001.80
2019-03-13T09:52:57.651Z,99999.66
2019-03-13T09:55:05.656Z,100006.70
2019-03-13T09:57:25.519Z,100010.98
2019-03-13T09:59:42.809Z,100008.60
2019-03-13T10:01:53.051Z,100016.47
2019-03-13T10:04:03.976Z,100013.23
2019-03-13T10:06:27.018Z,100022.00
2019-03-13T10:08:37.682Z,100017.13
2019-03-13T10:10:45.497Z,100016.42
2019-03-13T10:13:02.033Z,100014.16
2019-03-13T10:15:26.691Z,100016.02
2019-03-13T10:17:49.534Z,100024.50
2019-03-13T10:20:03.081Z,100029.52
2019-03-13T10:22:11.049Z,100024.23
2019-03-13T10:24:20.936Z,100023.63
2019-03-13T10:26:31.661Z,100027.95
2019-03-13T10:28:55.757Z,100022.89
2019-03-13T10:31:12.665Z,100028.77
2019-03-13T10:33:26.599Z,100031.05
2019-03-13T10:35:41.250Z,100030.61
2019-03-13T10:38:13.322Z,100024.45
2019-03-13T10:40:16.816Z,100037.17
2019-03-13T10:42:33.613Z,100035.87
2019-03-13T10:44:41.623Z,100035.30
2019-03-13T10:46:49.411Z,100032.64
2019-03-13T10:49:13.560Z,100034.62
2019-03-13T10:51:36.854Z,100034.01
2019-03-13T10:53:56.651Z,100036.20
2019-03-13T10:56:07.428Z,100032.80
2019-03-13T10:58:21.546Z,100036.84
2019-03-13T11:00:33.238Z,100039.08
2019-03-13T11:02:56.406Z,100037.53
2019-03-13T11:05:04.800Z,100036.45
2019-03-13T11:07:29.199Z,100035.69
2019-03-13T11:09:42.814Z,100038.08
2019-03-13T11:11:56.958Z,100034.82
2019-03-13T11:14:15.032Z,100035.17
2019-03-13T11:16:14.998Z,100029.06
2019-03-13T11:18:23.029Z,100034.38
2019-03-13T11:20:51.685Z,100029.69
2019-03-13T11:23:07.668Z,100028.88
2019-03-13T11:25:15.314Z,100022.26
2019-03-13T11:27:28.830Z,100015.62
2019-03-13T11:29:40.909Z,100023.95
2019-03-13T11:31:54.848Z,100023.20
2019-03-13T11:34:16.160Z,100026.36
2019-03-13T11:36:26.689Z,100025.46
2019-03-13T11:38:37.181Z,100029.44
2019-03-13T11:40:44.967Z,100020.89
2019-03-13T11:42:52.681Z,100028.31
2019-03-13T11:45:00.973Z,100025.70
2019-03-13T11:47:06.916Z,100027.27
2019-03-13T11:49:18.515Z,100029.81
2019-03-13T11:51:38.309Z,100035.88
2019-03-13T11:53:46.104Z,100032.99
2019-03-13T11:55:56.652Z,100036.34
2019-03-13T11:58:18.265Z,100042.42
2019-03-13T12:00:58.315Z,100042.98
2019-03-13T12:03:09.820Z,100043.05
2019-03-13T12:05:21.395Z,100044.92
2019-03-13T12:07:39.314Z,100041.94
2019-03-13T12:09:50.732Z,100044.08
2019-03-13T12:12:07.714Z,100039.84
2019-03-13T12:14:16.150Z,100038.51
2019-03-13T12:16:30.275Z,100030.34
2019-03-13T12:18:37.912Z,100031.08
2019-03-13T12:20:48.837Z,100037.64
2019-03-13T12:22:59.600Z,100041.51
2019-03-13T12:25:16.951Z,100029.00
2019-03-13T12:27:41.023Z,100043.13
2019-03-13T12:30:05.069Z,100040.05
2019-03-13T12:32:28.953Z,100038.95
2019-03-13T12:34:52.001Z,100036.45
2019-03-13T12:37:05.635Z,100042.22
2019-03-13T12:39:13.432Z,100059.15
2019-03-13T12:41:19.385Z,100027.88
2019-03-13T12:43:27.297Z,100042.41
2019-03-13T12:45:44.534Z,100039.72
2019-03-13T12:48:16.647Z,100044.10
2019-03-13T12:50:27.129Z,100036.09
2019-03-13T12:52:45.270Z,100034.42
2019-03-13T12:55:05.348Z,100039.65
2019-03-13T12:57:18.893Z,100028.26
2019-03-13T12:59:26.879Z,100040.18
2019-03-13T13:01:35.917Z,100036.21
2019-03-13T13:04:00.089Z,100041.20
2019-03-13T13:06:06.125Z,100037.07
2019-03-13T13:08:25.915Z,100039.77
2019-03-13T13:10:39.961Z,100036.58
2019-03-13T13:12:45.927Z,100035.45
2019-03-13T13:15:02.728Z,100043.31
2019-03-13T13:17:22.507Z,100045.14
2019-03-13T13:19:28.651Z,100038.31
2019-03-13T13:21:34.843Z,100036.02
2019-03-13T13:23:41.182Z,100030.97
2019-03-13T13:25:47.838Z,100034.84
2019-03-13T13:27:53.998Z,100032.03
2019-03-13T13:30:00.534Z,100031.78
2019-03-13T13:32:06.934Z,100034.61
2019-03-13T13:34:13.398Z,100037.11
2019-03-13T13:36:19.577Z,100038.95
2019-03-13T13:38:25.832Z,100043.33
2019-03-13T13:40:32.086Z,100038.20
2019-03-13T13:42:38.567Z,100036.65
2019-03-13T13:44:44.825Z,100036.53
2019-03-13T13:46:51.283Z,100034.71
2019-03-13T13:48:57.539Z,100036.64
2019-03-13T13:51:03.789Z,100033.34
2019-03-13T13:53:10.053Z,100031.95
2019-03-13T13:55:17.439Z,100034.53
2019-03-13T13:57:24.926Z,100023.97
2019-03-13T13:59:31.088Z,100024.91
2019-03-13T14:01:37.236Z,100033.30
2019-03-13T14:03:43.404Z,100034.70
2019-03-13T14:05:49.756Z,100025.77
2019-03-13T14:07:56.020Z,100033.52
2019-03-13T14:10:02.172Z,100032.97
2019-03-13T14:12:08.438Z,100036.00
2019-03-13T14:14:15.007Z,100023.19
2019-03-13T14:16:21.374Z,100028.59
2019-03-13T14:18:27.731Z,100020.66
2019-03-13T14:20:34.211Z,100027.20
2019-03-13T14:22:40.438Z,100028.72
2019-03-13T14:24:47.636Z,100023.47
2019-03-13T14:26:53.778Z,100023.80
2019-03-13T14:28:59.959Z,100024.74
2019-03-13T14:31:06.500Z,100020.31
2019-03-13T14:33:12.893Z,100020.34
2019-03-13T14:35:19.081Z,100025.64
2019-03-13T14:37:25.414Z,100019.86
2019-03-13T14:39:31.862Z,100029.31
2019-03-13T14:41:38.336Z,100029.75
2019-03-13T14:43:44.485Z,100022.48
2019-03-13T14:45:50.656Z,100023.17
2019-03-13T14:47:57.018Z,100013.56
2019-03-13T14:50:03.277Z,100018.48
2019-03-13T14:52:09.455Z,100013.89
2019-03-13T14:54:15.700Z,100015.28
2019-03-13T14:56:22.176Z,100019.13
2019-03-13T14:58:28.630Z,100007.26
2019-03-13T15:00:34.875Z,100019.58
2019-03-13T15:02:41.157Z,100010.80
2019-03-13T15:04:47.401Z,100012.70
2019-03-13T15:06:53.552Z,100014.06
2019-03-13T15:09:00.135Z,100018.94
2019-03-13T15:11:06.798Z,100017.52
2019-03-13T15:13:13.057Z,100013.00
2019-03-13T15:15:22.096Z,100024.25
2019-03-13T15:17:28.497Z,100020.81
2019-03-13T15:19:36.567Z,100014.22
2019-03-13T15:21:44.637Z,100017.53
2019-03-13T15:23:51.119Z,100016.95
2019-03-13T15:25:57.512Z,100013.42
2019-03-13T15:28:04.926Z,100015.19
2019-03-13T15:30:27.611Z,100014.73
2019-03-13T15:32:33.976Z,100013.55
2019-03-13T15:34:41.621Z,100017.18
2019-03-13T15:36:48.049Z,100021.34
2019-03-13T15:38:55.842Z,100019.58
2019-03-13T15:41:03.228Z,100020.67
2019-03-13T15:43:09.822Z,100012.91
2019-03-13T15:45:20.212Z,100014.06
2019-03-13T15:47:26.596Z,100013.99
2019-03-13T15:49:35.542Z,100014.18
2019-03-13T15:51:43.414Z,100009.32
2019-03-13T15:53:49.832Z,100013.36
2019-03-13T15:55:57.817Z,100015.20
2019-03-13T15:58:05.687Z,100011.50
2019-03-13T16:00:23.158Z,100014.49
2019-03-13T16:02:31.516Z,100017.03
2019-03-13T16:04:37.984Z,100024.88
2019-03-13T16:06:44.612Z,100023.37
2019-03-13T16:08:51.030Z,100027.99
2019-03-13T16:10:57.469Z,100030.79
2019-03-13T16:13:05.427Z,100024.39
2019-03-13T16:15:22.472Z,100029.83
2019-03-13T16:17:45.291Z,100019.06
2019-03-13T16:19:56.375Z,100024.02
2019-03-13T16:22:03.928Z,100012.46
2019-03-13T16:24:10.172Z,100015.22
2019-03-13T16:26:16.669Z,100016.21
2019-03-13T16:28:24.021Z,100009.88
2019-03-13T16:30:35.740Z,100010.19
2019-03-13T16:32:44.162Z,100010.97
2019-03-13T16:34:51.825Z,100007.09
2019-03-13T16:36:59.621Z,100013.59
2019-03-13T16:39:08.993Z,100012.70
2019-03-13T16:41:16.004Z,100006.91
2019-03-13T16:43:22.557Z,100005.25
2019-03-13T16:45:29.128Z,100003.20
2019-03-13T16:47:35.535Z,100003.65
2019-03-13T16:49:42.206Z,100008.33
2019-03-13T16:51:49.792Z,100004.92
2019-03-13T16:53:56.235Z,100004.86
2019-03-13T16:56:06.333Z,100007.53
2019-03-13T16:58:13.012Z,100013.20
2019-03-13T17:00:34.175Z,100009.61
2019-03-13T17:02:40.604Z,100009.96
2019-03-13T17:04:47.180Z,100010.66
2019-03-13T17:06:53.773Z,100005.50
2019-03-13T17:09:00.178Z,100008.14
2019-03-13T17:11:10.167Z,100006.48
2019-03-13T17:13:16.768Z,100006.14
2019-03-13T17:15:24.494Z,100000.83
2019-03-13T17:17:32.432Z,100010.31
2019-03-13T17:19:39.428Z,99998.09
2019-03-13T17:21:45.992Z,100002.89
2019-03-13T17:23:54.405Z,99999.30
2019-03-13T17:26:00.767Z,100001.05
2019-03-13T17:28:09.806Z,99995.31
2019-03-13T17:30:25.760Z,100000.13
2019-03-13T17:32:33.745Z,99991.41
2019-03-13T17:34:48.835Z,100000.45
2019-03-13T17:37:05.857Z,99994.84
2019-03-13T17:39:19.316Z,99996.05
2019-03-13T17:41:32.357Z,99988.16
2019-03-13T17:43:45.701Z,99975.61
2019-03-13T17:46:00.291Z,99974.43
2019-03-13T17:48:14.361Z,99975.83
2019-03-13T17:50:24.720Z,99985.19
2019-03-13T17:52:31.356Z,99976.75
2019-03-13T17:54:37.676Z,99972.06
2019-03-13T17:56:46.295Z,99968.72
2019-03-13T17:58:56.604Z,99971.75
2019-03-13T18:01:03.426Z,99978.78
2019-03-13T18:03:10.038Z,99971.72
2019-03-13T18:05:17.798Z,99974.23
2019-03-13T18:07:24.285Z,99976.40
2019-03-13T18:09:31.197Z,99975.98
2019-03-13T18:11:39.264Z,99974.17
2019-03-13T18:13:47.281Z,99971.12
2019-03-13T18:15:55.278Z,99964.11
2019-03-13T18:18:01.968Z,99968.03
2019-03-13T18:20:13.954Z,99958.41
2019-03-13T18:22:20.707Z,99957.62
2019-03-13T18:24:29.230Z,99962.42
2019-03-13T18:26:35.928Z,99965.36
2019-03-13T18:28:43.338Z,99967.55
2019-03-13T18:30:50.073Z,99961.12
2019-03-13T18:32:57.438Z,99969.05
2019-03-13T18:35:07.257Z,99960.83
2019-03-13T18:37:15.160Z,99961.72
2019-03-13T18:39:23.082Z,99956.98
2019-03-13T18:41:33.344Z,99962.30
2019-03-13T18:43:40.796Z,99959.30
2019-03-13T18:45:48.402Z,99952.36
2019-03-13T18:47:55.474Z,99955.77
2019-03-13T18:50:02.285Z,99956.09
2019-03-13T18:52:09.956Z,99951.70
2019-03-13T18:54:18.194Z,99946.92
2019-03-13T18:56:24.836Z,99955.55
2019-03-13T18:58:34.832Z,99942.82
2019-03-13T19:00:41.721Z,99952.84
2019-03-13T19:02:50.003Z,99949.69
2019-03-13T19:04:58.847Z,99941.95
2019-03-13T19:07:11.513Z,99941.06
2019-03-13T19:09:18.247Z,99945.33
2019-03-13T19:11:25.032Z,99944.92
2019-03-13T19:13:35.987Z,99937.53
2019-03-13T19:15:42.979Z,99933.17
2019-03-13T19:17:49.524Z,99927.51
2019-03-13T19:19:56.837Z,99934.34
2019-03-13T19:22:04.342Z,99926.64
2019-03-13T19:24:11.039Z,99922.28
2019-03-13T19:26:17.867Z,99925.31
2019-03-13T19:28:26.059Z,99925.31
2019-03-13T19:30:37.937Z,99920.98
2019-03-13T19:32:46.874Z,99917.52
2019-03-13T19:34:56.330Z,99919.67
2019-03-13T19:37:04.488Z,99918.38
2019-03-13T19:39:12.475Z,99910.89
2019-03-13T19:41:19.346Z,99909.14
2019-03-13T19:43:25.934Z,99907.73
2019-03-13T19:45:40.375Z,99903.44
2019-03-13T19:47:48.853Z,99904.23
2019-03-13T19:49:57.570Z,99902.52
2019-03-13T19:52:04.257Z,99901.08
2019-03-13T19:54:13.917Z,99902.48
2019-03-13T19:56:25.812Z,99899.80
2019-03-13T19:58:32.665Z,99896.44
2019-03-13T20:00:40.824Z,99894.78
2019-03-13T20:02:59.366Z,99897.48
2019-03-13T20:05:00.975Z,99889.66
2019-03-13T20:07:12.757Z,99887.94
2019-03-13T20:09:24.972Z,99892.78
2019-03-13T20:11:33.438Z,99881.92
2019-03-13T20:13:43.206Z,99878.45
2019-03-13T20:15:55.145Z,99872.83
2019-03-13T20:18:03.074Z,99876.80
2019-03-13T20:20:14.998Z,99875.16
2019-03-13T20:22:22.848Z,99868.66
2019-03-13T20:24:29.495Z,99869.11
2019-03-13T20:26:36.014Z,99868.25
2019-03-13T20:28:46.407Z,99870.48
2019-03-13T20:30:54.595Z,99859.11
2019-03-13T20:33:04.955Z,99861.38
2019-03-13T20:35:17.584Z,99860.04
2019-03-13T20:37:27.063Z,99850.94
2019-03-13T20:39:33.783Z,99852.24
2019-03-13T20:41:43.206Z,99851.86
2019-03-13T20:43:50.013Z,99847.47
2019-03-13T20:45:56.939Z,99845.23
2019-03-13T20:48:03.784Z,99842.15
2019-03-13T20:50:15.403Z,99835.24
2019-03-13T20:52:23.785Z,99827.96
2019-03-13T20:54:31.655Z,99833.63
2019-03-13T20:56:41.574Z,99828.00
2019-03-13T20:58:48.435Z,99829.81
2019-03-13T21:00:55.419Z,99827.61
2019-03-13T21:03:04.900Z,99825.14
2019-03-13T21:05:13.527Z,99826.98
2019-03-13T21:07:22.957Z,99823.58
2019-03-13T21:09:42.299Z,99824.92
2019-03-13T21:11:48.978Z,99815.09
2019-03-13T21:13:55.600Z,99816.05
2019-03-13T21:16:02.421Z,99816.05
2019-03-13T21:18:11.100Z,99809.97
2019-03-13T21:20:19.880Z,99810.89
2019-03-13T21:22:26.451Z,99813.98
2019-03-13T21:24:36.840Z,99805.33
2019-03-13T21:26:43.977Z,99812.68
2019-03-13T21:28:51.879Z,99803.83
2019-03-13T21:30:59.810Z,99799.02
2019-03-13T21:33:08.040Z,99811.02
2019-03-13T21:35:15.000Z,99806.75
2019-03-13T21:37:24.350Z,99798.52
2019-03-13T21:39:32.530Z,99801.09
2019-03-13T21:41:40.540Z,99792.92
2019-03-13T21:43:51.132Z,99795.18
2019-03-13T21:45:59.628Z,99790.41
2019-03-13T21:48:06.270Z,99785.13
2019-03-13T21:50:15.320Z,99782.14
2019-03-13T21:52:21.885Z,99779.87
2019-03-13T21:54:28.439Z,99786.30
2019-03-13T21:56:35.104Z,99767.28
2019-03-13T21:58:42.838Z,99779.87
2019-03-13T22:00:49.232Z,99775.14
2019-03-13T22:03:27.973Z,99775.23
2019-03-13T22:05:27.543Z,99776.06
2019-03-13T22:07:34.099Z,99772.18
2019-03-13T22:09:41.305Z,99763.47
2019-03-13T22:11:47.586Z,99756.95
2019-03-13T22:13:53.936Z,99763.05
2019-03-13T22:16:00.188Z,99753.52
2019-03-13T22:18:06.566Z,99754.78
2019-03-13T22:20:15.545Z,99743.05
2019-03-13T22:22:21.763Z,99749.53
2019-03-13T22:24:27.996Z,99745.52
2019-03-13T22:26:34.155Z,99741.53
2019-03-13T22:28:42.658Z,99747.61
2019-03-13T22:30:49.533Z,99751.08
2019-03-13T22:32:55.906Z,99745.80
2019-03-13T22:35:02.164Z,99754.03
2019-03-13T22:37:08.461Z,99747.06
2019-03-13T22:39:14.985Z,99749.70
2019-03-13T22:41:21.270Z,99747.58
2019-03-13T22:43:27.513Z,99746.30
2019-03-13T22:45:33.671Z,99746.41
2019-03-13T22:47:43.038Z,99750.35
2019-03-13T22:49:47.820Z,99742.19
2019-03-13T22:51:53.974Z,99747.47
2019-03-13T22:54:00.170Z,99746.61
2019-03-13T22:56:06.418Z,99748.77
2019-03-13T22:58:12.682Z,99742.38
2019-03-13T23:00:30.598Z,99739.81
2019-03-13T23:02:38.713Z,99739.47
2019-03-13T23:04:45.874Z,99726.05
2019-03-13T23:06:52.148Z,99724.80
2019-03-13T23:08:58.810Z,99724.88
2019-03-13T23:11:05.488Z,99718.35
2019-03-13T23:13:11.755Z,99710.43
2019-03-13T23:15:18.003Z,99715.75
2019-03-13T23:17:24.985Z,99708.44
2019-03-13T23:19:32.271Z,99704.45
2019-03-13T23:21:38.648Z,99706.52
2019-03-13T23:23:44.886Z,99703.50
2019-03-13T23:25:51.241Z,99701.41
2019-03-13T23:27:57.597Z,99705.73
2019-03-13T23:30:05.287Z,99701.34
2019-03-13T23:32:11.679Z,99696.63
2019-03-13T23:34:19.370Z,99697.94
2019-03-13T23:36:25.616Z,99702.74
2019-03-13T23:38:31.983Z,99700.99
2019-03-13T23:40:38.140Z,99699.44
2019-03-13T23:42:44.411Z,99689.91
2019-03-13T23:44:50.561Z,99691.62
2019-03-13T23:46:56.715Z,99679.92
2019-03-13T23:49:03.489Z,99688.13
2019-03-13T23:51:09.656Z,99689.05
2019-03-13T23:53:15.905Z,99687.20
2019-03-13T23:55:22.494Z,99688.95
2019-03-13T23:57:28.840Z,99683.35
2019-03-13T23:59:35.293Z,99683.35
